North Port, Florida
Current Conditions -  °F | °C
As of 3:53 PM on Friday 24 Oct 2014 (Local Time) from KPGD Reporting Station
Few Clouds Few Clouds  
Wind Chill: 85°   Ceiling: Unl
Heat Index: 85°   Visibility: 10mi
Dew Point: 62°   Wind: 12mph
Humidity: 46%   Direction: 20°NNE
Pressure: 29.88"   Gusts: NA
Location:  27.05°N, 82.23°W
Report Text: KPGD 241953Z 02010KT 10SM FEW050 29/17 A2988 RMK AO2 SLP118 T02940167
Loading
Personal Weather Stations






























Interactive Weather Map New forecast layout! Learn more

10-Day Weather Forecast

Advertisements
Track Severe Weather on mobile